sensor_id;sensor_type;location;lat;lon;timestamp;temperature;humidity
27671;DHT22;15077;49.704;9.908;2023-02-13T00:00:04;8.00;69.10
27671;DHT22;15077;49.704;9.908;2023-02-13T00:02:32;7.90;69.00
27671;DHT22;15077;49.704;9.908;2023-02-13T00:04:58;7.90;69.00
27671;DHT22;15077;49.704;9.908;2023-02-13T00:07:24;7.90;69.10
27671;DHT22;15077;49.704;9.908;2023-02-13T00:09:49;7.90;69.00
27671;DHT22;15077;49.704;9.908;2023-02-13T00:12:15;7.90;68.90
27671;DHT22;15077;49.704;9.908;2023-02-13T00:14:41;7.90;68.90
27671;DHT22;15077;49.704;9.908;2023-02-13T00:17:07;7.80;68.70
27671;DHT22;15077;49.704;9.908;2023-02-13T00:19:32;7.80;68.60
27671;DHT22;15077;49.704;9.908;2023-02-13T00:21:58;7.70;68.50
27671;DHT22;15077;49.704;9.908;2023-02-13T00:24:24;7.70;68.60
27671;DHT22;15077;49.704;9.908;2023-02-13T00:26:50;7.70;68.70
27671;DHT22;15077;49.704;9.908;2023-02-13T00:29:16;7.60;68.60
27671;DHT22;15077;49.704;9.908;2023-02-13T00:31:41;7.60;68.80
27671;DHT22;15077;49.704;9.908;2023-02-13T00:34:08;7.50;68.70
27671;DHT22;15077;49.704;9.908;2023-02-13T00:36:33;7.50;68.70
27671;DHT22;15077;49.704;9.908;2023-02-13T00:38:59;7.50;68.70
27671;DHT22;15077;49.704;9.908;2023-02-13T00:41:25;7.50;68.80
27671;DHT22;15077;49.704;9.908;2023-02-13T00:43:51;7.40;68.70
27671;DHT22;15077;49.704;9.908;2023-02-13T00:46:17;7.40;68.70
27671;DHT22;15077;49.704;9.908;2023-02-13T00:48:43;7.40;68.70
27671;DHT22;15077;49.704;9.908;2023-02-13T00:51:10;7.40;68.70
27671;DHT22;15077;49.704;9.908;2023-02-13T00:53:37;7.40;68.70
27671;DHT22;15077;49.704;9.908;2023-02-13T00:56:04;7.30;68.70
27671;DHT22;15077;49.704;9.908;2023-02-13T00:58:31;7.30;68.70
27671;DHT22;15077;49.704;9.908;2023-02-13T01:00:58;7.30;68.70
27671;DHT22;15077;49.704;9.908;2023-02-13T01:03:24;7.30;68.70
27671;DHT22;15077;49.704;9.908;2023-02-13T01:05:50;7.30;68.70
27671;DHT22;15077;49.704;9.908;2023-02-13T01:08:18;7.30;68.70
27671;DHT22;15077;49.704;9.908;2023-02-13T01:10:46;7.30;68.80
27671;DHT22;15077;49.704;9.908;2023-02-13T01:13:15;7.30;68.80
27671;DHT22;15077;49.704;9.908;2023-02-13T01:15:43;7.20;68.80
27671;DHT22;15077;49.704;9.908;2023-02-13T01:18:12;7.30;69.00
27671;DHT22;15077;49.704;9.908;2023-02-13T01:20:41;7.20;69.00
27671;DHT22;15077;49.704;9.908;2023-02-13T01:23:09;7.20;69.00
27671;DHT22;15077;49.704;9.908;2023-02-13T01:25:39;7.20;69.00
27671;DHT22;15077;49.704;9.908;2023-02-13T01:28:06;7.20;69.10
27671;DHT22;15077;49.704;9.908;2023-02-13T01:30:31;7.20;69.00
27671;DHT22;15077;49.704;9.908;2023-02-13T01:32:57;7.20;69.00
27671;DHT22;15077;49.704;9.908;2023-02-13T01:35:23;7.20;69.00
27671;DHT22;15077;49.704;9.908;2023-02-13T01:37:50;7.20;69.10
27671;DHT22;15077;49.704;9.908;2023-02-13T01:40:16;7.20;69.00
27671;DHT22;15077;49.704;9.908;2023-02-13T01:42:43;7.10;69.00
27671;DHT22;15077;49.704;9.908;2023-02-13T01:45:24;7.10;68.90
27671;DHT22;15077;49.704;9.908;2023-02-13T01:48:10;7.10;69.00
27671;DHT22;15077;49.704;9.908;2023-02-13T01:50:54;7.10;68.90
27671;DHT22;15077;49.704;9.908;2023-02-13T01:53:38;7.00;68.80
27671;DHT22;15077;49.704;9.908;2023-02-13T01:59:11;7.00;68.90
27671;DHT22;15077;49.704;9.908;2023-02-13T02:01:43;6.90;68.90
27671;DHT22;15077;49.704;9.908;2023-02-13T02:04:22;6.90;68.90
27671;DHT22;15077;49.704;9.908;2023-02-13T02:06:58;6.90;69.10
27671;DHT22;15077;49.704;9.908;2023-02-13T02:09:29;6.90;69.00
27671;DHT22;15077;49.704;9.908;2023-02-13T02:14:30;6.90;69.00
27671;DHT22;15077;49.704;9.908;2023-02-13T02:16:57;6.80;69.00
27671;DHT22;15077;49.704;9.908;2023-02-13T02:34:22;6.80;69.30
27671;DHT22;15077;49.704;9.908;2023-02-13T02:48:38;6.80;69.30
27671;DHT22;15077;49.704;9.908;2023-02-13T02:54:33;6.70;69.20
27671;DHT22;15077;49.704;9.908;2023-02-13T02:57:30;6.70;69.30
27671;DHT22;15077;49.704;9.908;2023-02-13T03:00:45;6.70;69.20
27671;DHT22;15077;49.704;9.908;2023-02-13T03:03:30;6.70;69.10
27671;DHT22;15077;49.704;9.908;2023-02-13T03:06:35;6.70;69.10
27671;DHT22;15077;49.704;9.908;2023-02-13T03:09:09;6.70;69.20
27671;DHT22;15077;49.704;9.908;2023-02-13T03:11:58;6.70;69.20
27671;DHT22;15077;49.704;9.908;2023-02-13T03:14:45;6.70;69.10
27671;DHT22;15077;49.704;9.908;2023-02-13T03:17:16;6.70;69.20
27671;DHT22;15077;49.704;9.908;2023-02-13T03:23:33;6.70;69.00
27671;DHT22;15077;49.704;9.908;2023-02-13T03:29:48;6.60;69.10
27671;DHT22;15077;49.704;9.908;2023-02-13T03:45:27;6.50;69.10
27671;DHT22;15077;49.704;9.908;2023-02-13T03:48:18;6.50;69.10
27671;DHT22;15077;49.704;9.908;2023-02-13T03:57:31;6.40;69.10
27671;DHT22;15077;49.704;9.908;2023-02-13T04:00:19;6.40;69.10
27671;DHT22;15077;49.704;9.908;2023-02-13T04:04:04;6.40;69.10
27671;DHT22;15077;49.704;9.908;2023-02-13T04:06:16;6.40;69.30
27671;DHT22;15077;49.704;9.908;2023-02-13T04:08:46;6.40;69.10
27671;DHT22;15077;49.704;9.908;2023-02-13T04:14:20;6.40;69.20
27671;DHT22;15077;49.704;9.908;2023-02-13T04:17:15;6.40;69.20
27671;DHT22;15077;49.704;9.908;2023-02-13T04:19:46;6.40;69.20
27671;DHT22;15077;49.704;9.908;2023-02-13T04:22:13;6.40;69.20
27671;DHT22;15077;49.704;9.908;2023-02-13T04:24:39;6.40;69.20
27671;DHT22;15077;49.704;9.908;2023-02-13T04:27:19;6.40;69.30
27671;DHT22;15077;49.704;9.908;2023-02-13T04:29:48;6.30;69.30
27671;DHT22;15077;49.704;9.908;2023-02-13T04:32:18;6.30;69.30
27671;DHT22;15077;49.704;9.908;2023-02-13T04:34:48;6.30;69.30
27671;DHT22;15077;49.704;9.908;2023-02-13T04:37:15;6.30;69.30
27671;DHT22;15077;49.704;9.908;2023-02-13T04:39:41;6.30;69.20
27671;DHT22;15077;49.704;9.908;2023-02-13T04:42:07;6.30;69.30
27671;DHT22;15077;49.704;9.908;2023-02-13T04:44:34;6.30;69.20
27671;DHT22;15077;49.704;9.908;2023-02-13T04:47:00;6.30;69.20
27671;DHT22;15077;49.704;9.908;2023-02-13T04:49:26;6.30;69.20
27671;DHT22;15077;49.704;9.908;2023-02-13T04:51:52;6.30;69.20
27671;DHT22;15077;49.704;9.908;2023-02-13T04:54:19;6.30;69.30
27671;DHT22;15077;49.704;9.908;2023-02-13T04:56:45;6.30;69.30
27671;DHT22;15077;49.704;9.908;2023-02-13T04:59:11;6.30;69.30
27671;DHT22;15077;49.704;9.908;2023-02-13T05:01:39;6.30;69.20
27671;DHT22;15077;49.704;9.908;2023-02-13T05:04:05;6.20;69.20
27671;DHT22;15077;49.704;9.908;2023-02-13T05:06:31;6.20;69.20
27671;DHT22;15077;49.704;9.908;2023-02-13T05:08:57;6.20;69.20
27671;DHT22;15077;49.704;9.908;2023-02-13T05:11:22;6.20;69.10
27671;DHT22;15077;49.704;9.908;2023-02-13T05:13:48;6.20;69.10
27671;DHT22;15077;49.704;9.908;2023-02-13T05:16:14;6.20;69.10
27671;DHT22;15077;49.704;9.908;2023-02-13T05:18:39;6.20;69.10
27671;DHT22;15077;49.704;9.908;2023-02-13T05:21:05;6.20;69.10
27671;DHT22;15077;49.704;9.908;2023-02-13T05:23:57;6.10;69.00
27671;DHT22;15077;49.704;9.908;2023-02-13T05:26:22;6.10;69.00
27671;DHT22;15077;49.704;9.908;2023-02-13T05:28:48;6.10;69.10
27671;DHT22;15077;49.704;9.908;2023-02-13T05:31:32;6.10;69.10
27671;DHT22;15077;49.704;9.908;2023-02-13T05:33:58;6.10;69.10
27671;DHT22;15077;49.704;9.908;2023-02-13T05:36:24;6.10;69.10
27671;DHT22;15077;49.704;9.908;2023-02-13T05:38:49;6.10;69.10
27671;DHT22;15077;49.704;9.908;2023-02-13T05:41:15;6.00;69.00
27671;DHT22;15077;49.704;9.908;2023-02-13T05:43:41;6.00;69.00
27671;DHT22;15077;49.704;9.908;2023-02-13T05:46:09;6.00;69.10
27671;DHT22;15077;49.704;9.908;2023-02-13T05:48:35;6.00;69.10
27671;DHT22;15077;49.704;9.908;2023-02-13T05:51:01;6.00;69.00
27671;DHT22;15077;49.704;9.908;2023-02-13T05:53:27;6.00;69.00
27671;DHT22;15077;49.704;9.908;2023-02-13T05:55:54;5.90;69.00
27671;DHT22;15077;49.704;9.908;2023-02-13T05:58:20;5.90;69.00
27671;DHT22;15077;49.704;9.908;2023-02-13T06:00:47;5.90;69.00
27671;DHT22;15077;49.704;9.908;2023-02-13T06:03:13;5.90;69.00
27671;DHT22;15077;49.704;9.908;2023-02-13T06:05:39;5.90;69.10
27671;DHT22;15077;49.704;9.908;2023-02-13T06:08:05;5.90;69.00
27671;DHT22;15077;49.704;9.908;2023-02-13T06:10:30;5.90;69.10
27671;DHT22;15077;49.704;9.908;2023-02-13T06:12:56;5.80;69.00
27671;DHT22;15077;49.704;9.908;2023-02-13T06:15:23;5.80;69.00
27671;DHT22;15077;49.704;9.908;2023-02-13T06:17:49;5.80;69.00
27671;DHT22;15077;49.704;9.908;2023-02-13T06:20:14;5.80;69.00
27671;DHT22;15077;49.704;9.908;2023-02-13T06:22:40;5.80;69.00
27671;DHT22;15077;49.704;9.908;2023-02-13T06:25:06;5.70;68.90
27671;DHT22;15077;49.704;9.908;2023-02-13T06:27:32;5.70;69.00
27671;DHT22;15077;49.704;9.908;2023-02-13T06:29:57;5.70;68.90
27671;DHT22;15077;49.704;9.908;2023-02-13T06:32:23;5.70;68.90
27671;DHT22;15077;49.704;9.908;2023-02-13T06:34:49;5.70;68.90
27671;DHT22;15077;49.704;9.908;2023-02-13T06:37:15;5.60;68.90
27671;DHT22;15077;49.704;9.908;2023-02-13T06:39:46;5.60;69.00
27671;DHT22;15077;49.704;9.908;2023-02-13T06:44:43;5.60;69.00
27671;DHT22;15077;49.704;9.908;2023-02-13T06:47:09;5.60;69.10
27671;DHT22;15077;49.704;9.908;2023-02-13T06:49:35;5.60;69.00
27671;DHT22;15077;49.704;9.908;2023-02-13T06:52:04;5.50;69.00
27671;DHT22;15077;49.704;9.908;2023-02-13T06:54:30;5.50;69.00
27671;DHT22;15077;49.704;9.908;2023-02-13T06:56:55;5.50;69.10
27671;DHT22;15077;49.704;9.908;2023-02-13T06:59:21;5.40;69.10
27671;DHT22;15077;49.704;9.908;2023-02-13T07:01:47;5.40;69.10
27671;DHT22;15077;49.704;9.908;2023-02-13T07:04:13;5.40;69.10
27671;DHT22;15077;49.704;9.908;2023-02-13T07:06:38;5.40;69.10
27671;DHT22;15077;49.704;9.908;2023-02-13T07:09:04;5.30;69.10
27671;DHT22;15077;49.704;9.908;2023-02-13T07:11:30;5.30;69.00
27671;DHT22;15077;49.704;9.908;2023-02-13T07:13:56;5.30;69.10
27671;DHT22;15077;49.704;9.908;2023-02-13T07:16:22;5.30;69.00
27671;DHT22;15077;49.704;9.908;2023-02-13T07:18:48;5.30;69.00
27671;DHT22;15077;49.704;9.908;2023-02-13T07:21:24;5.20;68.90
27671;DHT22;15077;49.704;9.908;2023-02-13T07:23:59;5.10;69.00
27671;DHT22;15077;49.704;9.908;2023-02-13T07:26:30;5.10;69.20
27671;DHT22;15077;49.704;9.908;2023-02-13T07:28:59;5.10;69.20
27671;DHT22;15077;49.704;9.908;2023-02-13T07:31:33;5.00;69.30
27671;DHT22;15077;49.704;9.908;2023-02-13T07:33:59;5.00;69.40
27671;DHT22;15077;49.704;9.908;2023-02-13T07:36:26;5.00;69.40
27671;DHT22;15077;49.704;9.908;2023-02-13T07:38:52;5.00;69.30
27671;DHT22;15077;49.704;9.908;2023-02-13T07:41:19;4.90;69.30
27671;DHT22;15077;49.704;9.908;2023-02-13T07:43:44;4.90;69.30
27671;DHT22;15077;49.704;9.908;2023-02-13T07:46:10;4.90;70.00
27671;DHT22;15077;49.704;9.908;2023-02-13T07:48:36;4.80;69.50
27671;DHT22;15077;49.704;9.908;2023-02-13T07:51:03;4.80;69.50
27671;DHT22;15077;49.704;9.908;2023-02-13T07:53:30;4.80;69.60
27671;DHT22;15077;49.704;9.908;2023-02-13T07:55:56;4.70;69.60
27671;DHT22;15077;49.704;9.908;2023-02-13T07:58:22;4.70;69.70
27671;DHT22;15077;49.704;9.908;2023-02-13T08:00:48;4.70;69.90
27671;DHT22;15077;49.704;9.908;2023-02-13T08:03:14;4.70;70.00
27671;DHT22;15077;49.704;9.908;2023-02-13T08:05:40;4.70;70.10
27671;DHT22;15077;49.704;9.908;2023-02-13T08:08:06;4.70;69.90
27671;DHT22;15077;49.704;9.908;2023-02-13T08:10:31;4.70;70.00
27671;DHT22;15077;49.704;9.908;2023-02-13T08:13:16;4.70;69.90
27671;DHT22;15077;49.704;9.908;2023-02-13T08:15:42;4.70;69.90
27671;DHT22;15077;49.704;9.908;2023-02-13T08:18:09;4.70;69.90
27671;DHT22;15077;49.704;9.908;2023-02-13T08:20:35;4.70;70.10
27671;DHT22;15077;49.704;9.908;2023-02-13T08:23:05;4.70;70.10
27671;DHT22;15077;49.704;9.908;2023-02-13T08:25:32;4.80;70.20
27671;DHT22;15077;49.704;9.908;2023-02-13T08:27:59;4.80;70.20
27671;DHT22;15077;49.704;9.908;2023-02-13T08:30:26;4.80;70.20
27671;DHT22;15077;49.704;9.908;2023-02-13T08:32:53;4.80;70.30
27671;DHT22;15077;49.704;9.908;2023-02-13T08:35:19;4.80;70.40
27671;DHT22;15077;49.704;9.908;2023-02-13T08:37:44;4.90;70.20
27671;DHT22;15077;49.704;9.908;2023-02-13T08:40:10;4.90;70.10
27671;DHT22;15077;49.704;9.908;2023-02-13T08:42:37;4.90;70.10
27671;DHT22;15077;49.704;9.908;2023-02-13T08:45:03;4.80;70.20
27671;DHT22;15077;49.704;9.908;2023-02-13T08:47:30;4.80;70.30
27671;DHT22;15077;49.704;9.908;2023-02-13T08:49:56;4.80;70.40
27671;DHT22;15077;49.704;9.908;2023-02-13T08:52:23;4.80;70.50
27671;DHT22;15077;49.704;9.908;2023-02-13T08:54:49;4.80;70.60
27671;DHT22;15077;49.704;9.908;2023-02-13T08:57:15;4.80;70.80
27671;DHT22;15077;49.704;9.908;2023-02-13T08:59:40;4.80;70.80
27671;DHT22;15077;49.704;9.908;2023-02-13T09:04:52;4.90;70.90
27671;DHT22;15077;49.704;9.908;2023-02-13T09:07:18;4.90;70.80
27671;DHT22;15077;49.704;9.908;2023-02-13T09:09:44;4.90;70.90
27671;DHT22;15077;49.704;9.908;2023-02-13T09:12:10;4.90;71.00
27671;DHT22;15077;49.704;9.908;2023-02-13T09:14:35;5.00;71.00
27671;DHT22;15077;49.704;9.908;2023-02-13T09:17:03;5.00;71.10
27671;DHT22;15077;49.704;9.908;2023-02-13T09:19:29;5.00;70.90
27671;DHT22;15077;49.704;9.908;2023-02-13T09:21:55;5.00;71.00
27671;DHT22;15077;49.704;9.908;2023-02-13T09:24:20;5.10;71.20
27671;DHT22;15077;49.704;9.908;2023-02-13T09:26:46;5.10;71.00
27671;DHT22;15077;49.704;9.908;2023-02-13T09:29:12;5.10;71.10
27671;DHT22;15077;49.704;9.908;2023-02-13T09:31:37;5.20;71.10
27671;DHT22;15077;49.704;9.908;2023-02-13T09:34:03;5.20;71.20
27671;DHT22;15077;49.704;9.908;2023-02-13T09:36:29;5.20;71.30
27671;DHT22;15077;49.704;9.908;2023-02-13T09:38:56;5.20;71.30
27671;DHT22;15077;49.704;9.908;2023-02-13T09:41:48;5.30;71.30
27671;DHT22;15077;49.704;9.908;2023-02-13T09:44:22;5.30;71.50
27671;DHT22;15077;49.704;9.908;2023-02-13T09:47:00;5.30;71.30
27671;DHT22;15077;49.704;9.908;2023-02-13T09:49:34;5.40;71.20
27671;DHT22;15077;49.704;9.908;2023-02-13T09:52:02;5.40;71.40
27671;DHT22;15077;49.704;9.908;2023-02-13T09:54:28;5.40;71.50
27671;DHT22;15077;49.704;9.908;2023-02-13T10:14:30;5.60;72.20
27671;DHT22;15077;49.704;9.908;2023-02-13T10:17:11;5.60;72.20
27671;DHT22;15077;49.704;9.908;2023-02-13T10:19:52;5.70;72.30
27671;DHT22;15077;49.704;9.908;2023-02-13T10:22:39;5.70;72.30
27671;DHT22;15077;49.704;9.908;2023-02-13T10:25:20;5.80;72.40
27671;DHT22;15077;49.704;9.908;2023-02-13T10:28:10;5.90;72.30
27671;DHT22;15077;49.704;9.908;2023-02-13T10:30:52;5.90;72.50
27671;DHT22;15077;49.704;9.908;2023-02-13T10:33:29;6.00;72.60
27671;DHT22;15077;49.704;9.908;2023-02-13T10:38:42;6.00;72.50
27671;DHT22;15077;49.704;9.908;2023-02-13T10:41:24;6.10;72.80
27671;DHT22;15077;49.704;9.908;2023-02-13T10:47:24;6.10;72.60
27671;DHT22;15077;49.704;9.908;2023-02-13T10:50:35;6.20;72.70
27671;DHT22;15077;49.704;9.908;2023-02-13T11:02:29;6.20;72.80
27671;DHT22;15077;49.704;9.908;2023-02-13T11:04:58;6.20;72.90
27671;DHT22;15077;49.704;9.908;2023-02-13T11:07:28;6.30;72.70
27671;DHT22;15077;49.704;9.908;2023-02-13T11:09:59;6.30;72.90
27671;DHT22;15077;49.704;9.908;2023-02-13T11:12:32;6.40;73.00
27671;DHT22;15077;49.704;9.908;2023-02-13T11:15:04;6.40;73.00
27671;DHT22;15077;49.704;9.908;2023-02-13T11:17:39;6.40;73.00
27671;DHT22;15077;49.704;9.908;2023-02-13T11:25:58;6.50;73.40
27671;DHT22;15077;49.704;9.908;2023-02-13T11:28:28;6.60;73.10
27671;DHT22;15077;49.704;9.908;2023-02-13T11:31:23;6.60;73.10
27671;DHT22;15077;49.704;9.908;2023-02-13T11:33:57;6.70;73.10
27671;DHT22;15077;49.704;9.908;2023-02-13T11:36:32;6.70;73.10
27671;DHT22;15077;49.704;9.908;2023-02-13T11:39:05;6.70;73.30
27671;DHT22;15077;49.704;9.908;2023-02-13T11:41:43;6.70;73.50
27671;DHT22;15077;49.704;9.908;2023-02-13T11:44:26;6.80;73.70
27671;DHT22;15077;49.704;9.908;2023-02-13T11:46:55;6.90;73.60
27671;DHT22;15077;49.704;9.908;2023-02-13T11:49:25;7.00;73.50
27671;DHT22;15077;49.704;9.908;2023-02-13T11:51:59;7.00;73.50
27671;DHT22;15077;49.704;9.908;2023-02-13T11:54:35;7.10;73.20
27671;DHT22;15077;49.704;9.908;2023-02-13T11:59:59;7.10;73.10
27671;DHT22;15077;49.704;9.908;2023-02-13T12:02:47;7.20;73.00
27671;DHT22;15077;49.704;9.908;2023-02-13T12:05:18;7.20;73.00
27671;DHT22;15077;49.704;9.908;2023-02-13T12:07:46;7.20;73.00
27671;DHT22;15077;49.704;9.908;2023-02-13T12:10:28;7.20;73.00
27671;DHT22;15077;49.704;9.908;2023-02-13T12:13:01;7.30;72.90
27671;DHT22;15077;49.704;9.908;2023-02-13T12:15:37;7.30;72.90
27671;DHT22;15077;49.704;9.908;2023-02-13T12:18:20;7.20;72.90
27671;DHT22;15077;49.704;9.908;2023-02-13T12:23:56;7.30;73.00
27671;DHT22;15077;49.704;9.908;2023-02-13T12:26:37;7.30;73.50
27671;DHT22;15077;49.704;9.908;2023-02-13T12:35:44;7.30;73.00
27671;DHT22;15077;49.704;9.908;2023-02-13T12:38:24;7.40;73.20
27671;DHT22;15077;49.704;9.908;2023-02-13T12:47:17;7.60;74.00
27671;DHT22;15077;49.704;9.908;2023-02-13T13:01:56;8.10;74.20
27671;DHT22;15077;49.704;9.908;2023-02-13T13:12:54;8.80;73.70
27671;DHT22;15077;49.704;9.908;2023-02-13T13:16:05;8.90;73.50
27671;DHT22;15077;49.704;9.908;2023-02-13T13:19:03;9.10;73.10
27671;DHT22;15077;49.704;9.908;2023-02-13T13:21:42;9.20;73.30
27671;DHT22;15077;49.704;9.908;2023-02-13T13:24:30;9.40;73.20
27671;DHT22;15077;49.704;9.908;2023-02-13T13:27:15;9.40;73.30
27671;DHT22;15077;49.704;9.908;2023-02-13T13:30:05;9.60;73.20
27671;DHT22;15077;49.704;9.908;2023-02-13T13:32:38;9.80;73.20
27671;DHT22;15077;49.704;9.908;2023-02-13T13:35:13;9.90;72.70
27671;DHT22;15077;49.704;9.908;2023-02-13T13:38:13;10.00;72.50
27671;DHT22;15077;49.704;9.908;2023-02-13T13:41:20;10.10;72.50
27671;DHT22;15077;49.704;9.908;2023-02-13T13:49:57;10.40;71.70
27671;DHT22;15077;49.704;9.908;2023-02-13T13:52:33;10.40;71.10
27671;DHT22;15077;49.704;9.908;2023-02-13T13:55:02;10.50;71.20
27671;DHT22;15077;49.704;9.908;2023-02-13T14:05:28;10.70;70.70
27671;DHT22;15077;49.704;9.908;2023-02-13T14:08:02;10.70;70.50
27671;DHT22;15077;49.704;9.908;2023-02-13T14:13:34;10.70;70.20
27671;DHT22;15077;49.704;9.908;2023-02-13T14:16:08;10.80;70.20
27671;DHT22;15077;49.704;9.908;2023-02-13T14:18:57;10.80;70.00
27671;DHT22;15077;49.704;9.908;2023-02-13T14:21:23;10.80;69.90
27671;DHT22;15077;49.704;9.908;2023-02-13T14:23:49;10.80;69.70
27671;DHT22;15077;49.704;9.908;2023-02-13T14:26:18;10.80;69.80
27671;DHT22;15077;49.704;9.908;2023-02-13T14:34:16;10.90;69.80
27671;DHT22;15077;49.704;9.908;2023-02-13T14:36:46;10.90;69.90
27671;DHT22;15077;49.704;9.908;2023-02-13T14:39:33;10.90;69.50
27671;DHT22;15077;49.704;9.908;2023-02-13T14:42:27;11.00;69.40
27671;DHT22;15077;49.704;9.908;2023-02-13T14:44:57;11.00;69.60
27671;DHT22;15077;49.704;9.908;2023-02-13T14:47:31;11.00;69.30
27671;DHT22;15077;49.704;9.908;2023-02-13T14:50:04;11.00;69.30
27671;DHT22;15077;49.704;9.908;2023-02-13T14:52:38;11.10;69.30
27671;DHT22;15077;49.704;9.908;2023-02-13T14:55:34;11.10;69.90
27671;DHT22;15077;49.704;9.908;2023-02-13T14:58:29;11.10;69.20
27671;DHT22;15077;49.704;9.908;2023-02-13T15:01:07;11.10;69.10
27671;DHT22;15077;49.704;9.908;2023-02-13T15:03:56;11.10;69.20
27671;DHT22;15077;49.704;9.908;2023-02-13T15:06:40;11.10;69.00
27671;DHT22;15077;49.704;9.908;2023-02-13T15:11:48;11.20;69.20
27671;DHT22;15077;49.704;9.908;2023-02-13T15:14:19;11.20;69.20
27671;DHT22;15077;49.704;9.908;2023-02-13T15:17:13;11.20;69.20
27671;DHT22;15077;49.704;9.908;2023-02-13T15:19:50;11.20;69.40
27671;DHT22;15077;49.704;9.908;2023-02-13T15:22:33;11.30;69.50
27671;DHT22;15077;49.704;9.908;2023-02-13T15:25:01;11.30;69.40
27671;DHT22;15077;49.704;9.908;2023-02-13T15:27:31;11.30;69.30
27671;DHT22;15077;49.704;9.908;2023-02-13T15:30:19;11.40;69.40
27671;DHT22;15077;49.704;9.908;2023-02-13T15:32:56;11.40;69.40
27671;DHT22;15077;49.704;9.908;2023-02-13T15:35:36;11.40;69.10
27671;DHT22;15077;49.704;9.908;2023-02-13T15:43:48;11.50;69.20
27671;DHT22;15077;49.704;9.908;2023-02-13T15:48:53;11.50;69.00
27671;DHT22;15077;49.704;9.908;2023-02-13T15:51:24;11.50;69.00
27671;DHT22;15077;49.704;9.908;2023-02-13T15:54:00;11.50;68.80
27671;DHT22;15077;49.704;9.908;2023-02-13T15:56:30;11.50;69.00
27671;DHT22;15077;49.704;9.908;2023-02-13T15:58:59;11.50;69.00
27671;DHT22;15077;49.704;9.908;2023-02-13T16:01:27;11.50;68.90
27671;DHT22;15077;49.704;9.908;2023-02-13T16:04:04;11.50;68.80
27671;DHT22;15077;49.704;9.908;2023-02-13T16:06:32;11.50;68.70
27671;DHT22;15077;49.704;9.908;2023-02-13T16:08:59;11.50;68.60
27671;DHT22;15077;49.704;9.908;2023-02-13T16:14:20;11.40;68.50
27671;DHT22;15077;49.704;9.908;2023-02-13T16:17:03;11.40;68.50
27671;DHT22;15077;49.704;9.908;2023-02-13T16:19:51;11.30;68.50
27671;DHT22;15077;49.704;9.908;2023-02-13T16:27:46;11.20;68.30
27671;DHT22;15077;49.704;9.908;2023-02-13T16:43:55;10.90;67.80
27671;DHT22;15077;49.704;9.908;2023-02-13T16:46:23;10.90;68.00
27671;DHT22;15077;49.704;9.908;2023-02-13T16:54:48;10.70;67.30
27671;DHT22;15077;49.704;9.908;2023-02-13T16:57:19;10.60;67.30
27671;DHT22;15077;49.704;9.908;2023-02-13T17:02:46;10.50;67.20
27671;DHT22;15077;49.704;9.908;2023-02-13T17:05:22;10.40;67.30
27671;DHT22;15077;49.704;9.908;2023-02-13T17:07:53;10.30;67.20
27671;DHT22;15077;49.704;9.908;2023-02-13T17:10:28;10.30;67.20
27671;DHT22;15077;49.704;9.908;2023-02-13T17:13:00;10.20;67.10
27671;DHT22;15077;49.704;9.908;2023-02-13T17:15:29;10.10;67.00
27671;DHT22;15077;49.704;9.908;2023-02-13T17:17:56;10.00;67.00
27671;DHT22;15077;49.704;9.908;2023-02-13T17:20:24;10.00;67.10
27671;DHT22;15077;49.704;9.908;2023-02-13T17:22:54;9.90;67.10
27671;DHT22;15077;49.704;9.908;2023-02-13T17:27:52;9.70;67.10
27671;DHT22;15077;49.704;9.908;2023-02-13T17:30:22;9.70;67.00
27671;DHT22;15077;49.704;9.908;2023-02-13T17:32:58;9.60;67.00
27671;DHT22;15077;49.704;9.908;2023-02-13T17:35:27;9.50;67.00
27671;DHT22;15077;49.704;9.908;2023-02-13T17:37:53;9.50;67.10
27671;DHT22;15077;49.704;9.908;2023-02-13T17:40:21;9.40;67.00
27671;DHT22;15077;49.704;9.908;2023-02-13T17:42:52;9.30;66.90
27671;DHT22;15077;49.704;9.908;2023-02-13T17:45:21;9.30;66.80
27671;DHT22;15077;49.704;9.908;2023-02-13T17:47:49;9.20;66.80
27671;DHT22;15077;49.704;9.908;2023-02-13T17:50:15;9.10;66.80
27671;DHT22;15077;49.704;9.908;2023-02-13T17:52:45;9.10;66.90
27671;DHT22;15077;49.704;9.908;2023-02-13T17:55:19;9.00;66.90
27671;DHT22;15077;49.704;9.908;2023-02-13T17:57:47;9.00;66.90
27671;DHT22;15077;49.704;9.908;2023-02-13T18:00:14;8.90;66.90
27671;DHT22;15077;49.704;9.908;2023-02-13T18:02:40;8.90;67.00
27671;DHT22;15077;49.704;9.908;2023-02-13T18:05:09;8.80;66.80
27671;DHT22;15077;49.704;9.908;2023-02-13T18:07:35;8.70;66.70
27671;DHT22;15077;49.704;9.908;2023-02-13T18:10:06;8.60;66.70
27671;DHT22;15077;49.704;9.908;2023-02-13T18:12:35;8.60;66.80
27671;DHT22;15077;49.704;9.908;2023-02-13T18:15:00;8.50;66.90
27671;DHT22;15077;49.704;9.908;2023-02-13T18:17:26;8.40;66.90
27671;DHT22;15077;49.704;9.908;2023-02-13T18:19:52;8.40;67.00
27671;DHT22;15077;49.704;9.908;2023-02-13T18:22:20;8.30;67.00
27671;DHT22;15077;49.704;9.908;2023-02-13T18:24:45;8.30;67.00
27671;DHT22;15077;49.704;9.908;2023-02-13T18:27:11;8.20;66.90
27671;DHT22;15077;49.704;9.908;2023-02-13T18:29:37;8.20;66.80
27671;DHT22;15077;49.704;9.908;2023-02-13T18:32:05;8.20;66.80
27671;DHT22;15077;49.704;9.908;2023-02-13T18:34:33;8.10;66.70
27671;DHT22;15077;49.704;9.908;2023-02-13T18:37:00;8.00;66.70
27671;DHT22;15077;49.704;9.908;2023-02-13T18:39:26;8.00;66.70
27671;DHT22;15077;49.704;9.908;2023-02-13T18:41:52;7.90;66.80
27671;DHT22;15077;49.704;9.908;2023-02-13T18:44:18;7.90;66.90
27671;DHT22;15077;49.704;9.908;2023-02-13T18:46:43;7.90;66.80
27671;DHT22;15077;49.704;9.908;2023-02-13T18:49:10;7.80;66.90
27671;DHT22;15077;49.704;9.908;2023-02-13T18:51:38;7.80;66.90
27671;DHT22;15077;49.704;9.908;2023-02-13T18:54:04;7.70;67.00
27671;DHT22;15077;49.704;9.908;2023-02-13T18:56:30;7.70;67.10
27671;DHT22;15077;49.704;9.908;2023-02-13T18:58:56;7.70;67.00
27671;DHT22;15077;49.704;9.908;2023-02-13T19:01:22;7.60;66.90
27671;DHT22;15077;49.704;9.908;2023-02-13T19:03:50;7.50;66.90
27671;DHT22;15077;49.704;9.908;2023-02-13T19:06:19;7.50;67.00
27671;DHT22;15077;49.704;9.908;2023-02-13T19:08:47;7.50;66.90
27671;DHT22;15077;49.704;9.908;2023-02-13T19:11:15;7.40;66.80
27671;DHT22;15077;49.704;9.908;2023-02-13T19:13:44;7.40;66.80
27671;DHT22;15077;49.704;9.908;2023-02-13T19:16:14;7.30;66.80
27671;DHT22;15077;49.704;9.908;2023-02-13T19:18:44;7.30;66.90
27671;DHT22;15077;49.704;9.908;2023-02-13T19:21:12;7.30;66.90
27671;DHT22;15077;49.704;9.908;2023-02-13T19:23:39;7.20;66.80
27671;DHT22;15077;49.704;9.908;2023-02-13T19:26:07;7.20;66.90
27671;DHT22;15077;49.704;9.908;2023-02-13T19:28:35;7.10;66.90
27671;DHT22;15077;49.704;9.908;2023-02-13T19:31:13;7.10;66.90
27671;DHT22;15077;49.704;9.908;2023-02-13T19:33:44;7.00;66.80
27671;DHT22;15077;49.704;9.908;2023-02-13T19:36:13;7.00;66.90
27671;DHT22;15077;49.704;9.908;2023-02-13T19:38:42;7.00;66.90
27671;DHT22;15077;49.704;9.908;2023-02-13T19:41:11;6.90;67.00
27671;DHT22;15077;49.704;9.908;2023-02-13T19:43:39;6.90;67.10